Story, Arkansas
Current Conditions -  °F | °C
As of 2:53 AM on Thursday 27 Nov 2014 (Local Time) from KMWT Reporting Station
Clear Clear  
Wind Chill: 33°   Ceiling: Unl
Heat Index: 37°   Visibility: 10mi
Dew Point: 26°   Wind: 5mph
Humidity: 65%   Direction: NA
Pressure: 30.35"   Gusts: NA
Location:  34.69°N, 93.52°W
Report Text: KMWT 270853Z AUTO VRB04KT 10SM CLR 03/M03 A3035 RMK AO2 SLP283 T00281033 53021
Loading
Personal Weather Stations






























Interactive Weather Map New forecast layout! Learn more

10-Day Weather Forecast

Advertisements
Track Severe Weather on mobile